Time;durP1;ratioP1;P1;durP2;ratioP2;P2;SDS_P1;SDS_P2;PMS_P1;PMS_P2;Temp;Humidity;BMP_temperature;BMP_pressure;BME280_temperature;BME280_humidity;BME280_pressure;Samples;Min_cycle;Max_cycle;Signal;HPM_P1;HPM_P2
2023/04/30 00:01:20;;;;;;;21.67;11.55;;;;;;;;;;5015078;28;20038;-57
2023/04/30 00:03:46;;;;;;;20.23;11.50;;;;;;;;;;5013156;28;20544;-57
2023/04/30 00:06:12;;;;;;;19.48;10.95;;;;;;;;;;5015426;28;20080;-57
2023/04/30 00:08:39;;;;;;;17.75;10.05;;;;;;;;;;5014623;28;20117;-57
2023/04/30 00:11:05;;;;;;;18.73;10.88;;;;;;;;;;5013046;28;20042;-57
2023/04/30 00:13:31;;;;;;;18.02;12.00;;;;;;;;;;5014530;28;20038;-57
2023/04/30 00:15:57;;;;;;;16.73;10.77;;;;;;;;;;5014009;28;20046;-57
2023/04/30 00:18:23;;;;;;;19.08;11.73;;;;;;;;;;5013814;28;20046;-57
2023/04/30 00:20:51;;;;;;;20.70;10.75;;;;;;;;;;5014467;28;20546;-57
2023/04/30 00:23:17;;;;;;;16.23;10.73;;;;;;;;;;5013171;28;20098;-57
2023/04/30 00:25:43;;;;;;;21.23;10.98;;;;;;;;;;5010759;28;20104;-57
2023/04/30 00:28:09;;;;;;;19.48;11.98;;;;;;;;;;5013248;28;20574;-57
2023/04/30 00:30:35;;;;;;;20.38;11.63;;;;;;;;;;5011772;28;20042;-57
2023/04/30 00:33:01;;;;;;;16.58;10.57;;;;;;;;;;5010658;28;20049;-58
2023/04/30 00:35:27;;;;;;;19.73;12.40;;;;;;;;;;5013402;28;20472;-57
2023/04/30 00:37:53;;;;;;;22.63;12.52;;;;;;;;;;5007074;28;20043;-58
2023/04/30 00:40:20;;;;;;;22.98;10.73;;;;;;;;;;5013970;28;20042;-57
2023/04/30 00:42:47;;;;;;;19.45;11.57;;;;;;;;;;5014564;28;20081;-57
2023/04/30 00:45:13;;;;;;;19.08;10.57;;;;;;;;;;5014299;28;20076;-57
2023/04/30 00:47:40;;;;;;;19.17;11.02;;;;;;;;;;5007107;28;20030;-58
2023/04/30 00:50:06;;;;;;;20.33;12.32;;;;;;;;;;5015402;28;20103;-57
2023/04/30 00:52:32;;;;;;;17.70;10.65;;;;;;;;;;5014561;28;20530;-57
2023/04/30 00:54:59;;;;;;;20.00;13.00;;;;;;;;;;5013997;28;20042;-57
2023/04/30 00:57:26;;;;;;;24.02;11.70;;;;;;;;;;5012077;28;20148;-57
2023/04/30 00:59:53;;;;;;;19.02;12.05;;;;;;;;;;5013492;28;20451;-57
2023/04/30 01:02:19;;;;;;;19.95;11.57;;;;;;;;;;5013783;28;20061;-57
2023/04/30 01:04:46;;;;;;;19.27;10.88;;;;;;;;;;5014200;28;20050;-57
2023/04/30 01:07:12;;;;;;;19.20;11.70;;;;;;;;;;5013207;28;20578;-57
2023/04/30 01:09:38;;;;;;;21.17;12.38;;;;;;;;;;5014495;28;20042;-57
2023/04/30 01:12:16;;;;;;;19.38;11.45;;;;;;;;;;5015022;28;20046;-57
2023/04/30 01:14:47;;;;;;;23.30;11.88;;;;;;;;;;5012076;28;20103;-57
2023/04/30 01:17:22;;;;;;;17.57;11.80;;;;;;;;;;5013520;28;20090;-57
2023/04/30 01:19:48;;;;;;;18.13;11.63;;;;;;;;;;5011922;28;20038;-57
2023/04/30 01:22:24;;;;;;;19.20;11.95;;;;;;;;;;5014163;28;20831;-58
2023/04/30 01:24:54;;;;;;;18.92;12.15;;;;;;;;;;5013349;28;20527;-57
2023/04/30 01:27:28;;;;;;;20.05;11.82;;;;;;;;;;5014229;28;20104;-57
2023/04/30 01:29:56;;;;;;;16.30;11.60;;;;;;;;;;5014886;28;20045;-58
2023/04/30 01:32:22;;;;;;;19.58;12.45;;;;;;;;;;5013482;28;20447;-57
2023/04/30 01:34:48;;;;;;;20.13;11.80;;;;;;;;;;5012946;28;20564;-58
2023/04/30 01:37:33;;;;;;;21.42;12.52;;;;;;;;;;5008262;28;20542;-57
2023/04/30 01:39:59;;;;;;;15.88;10.25;;;;;;;;;;5014399;28;21339;-57
2023/04/30 01:42:30;;;;;;;17.02;11.85;;;;;;;;;;5012188;28;20053;-58
2023/04/30 01:45:12;;;;;;;22.15;13.75;;;;;;;;;;5010678;28;20073;-58
2023/04/30 01:47:48;;;;;;;18.27;11.30;;;;;;;;;;5012660;28;20177;-57
2023/04/30 01:50:14;;;;;;;24.55;12.02;;;;;;;;;;5012199;28;20046;-58
2023/04/30 01:52:47;;;;;;;21.85;13.23;;;;;;;;;;5012545;28;20041;-58
2023/04/30 01:55:22;;;;;;;21.02;12.27;;;;;;;;;;5011314;28;20686;-58
2023/04/30 01:57:56;;;;;;;19.80;12.82;;;;;;;;;;5010998;28;20045;-58
2023/04/30 02:00:22;;;;;;;22.33;12.32;;;;;;;;;;5013363;28;20125;-58
2023/04/30 02:02:49;;;;;;;22.67;12.02;;;;;;;;;;5012641;28;20471;-57
2023/04/30 02:05:15;;;;;;;22.08;11.35;;;;;;;;;;5012939;28;20096;-57
2023/04/30 02:07:42;;;;;;;19.48;11.95;;;;;;;;;;5045486;28;20076;-57
2023/04/30 02:10:09;;;;;;;23.13;11.32;;;;;;;;;;5009870;28;20145;-58
2023/04/30 02:12:35;;;;;;;20.13;12.00;;;;;;;;;;5012366;28;20037;-57
2023/04/30 02:15:02;;;;;;;19.75;12.73;;;;;;;;;;5010410;28;20547;-58
2023/04/30 02:17:28;;;;;;;28.10;14.88;;;;;;;;;;5012757;28;20049;-58
2023/04/30 02:19:54;;;;;;;20.70;11.70;;;;;;;;;;5013184;28;20057;-57
2023/04/30 02:22:20;;;;;;;22.52;11.75;;;;;;;;;;5011386;28;20883;-57
2023/04/30 02:24:47;;;;;;;23.35;12.40;;;;;;;;;;5013570;28;20236;-58
2023/04/30 02:27:13;;;;;;;19.88;11.35;;;;;;;;;;5008773;28;20107;-57
2023/04/30 02:29:39;;;;;;;18.85;12.63;;;;;;;;;;5009292;28;20033;-57
2023/04/30 02:32:05;;;;;;;21.42;11.88;;;;;;;;;;5029140;28;20141;-58
2023/04/30 02:34:31;;;;;;;19.02;11.35;;;;;;;;;;5012155;28;20060;-58
2023/04/30 02:36:57;;;;;;;20.23;13.02;;;;;;;;;;5011384;28;20041;-58
2023/04/30 02:39:24;;;;;;;24.85;12.18;;;;;;;;;;5014209;28;20045;-57
2023/04/30 02:41:50;;;;;;;20.15;13.25;;;;;;;;;;5013541;28;20058;-57
2023/04/30 02:44:16;;;;;;;20.13;12.48;;;;;;;;;;5011726;28;20142;-57
2023/04/30 02:46:42;;;;;;;28.05;13.55;;;;;;;;;;5012516;28;20156;-57
2023/04/30 02:49:08;;;;;;;20.65;11.32;;;;;;;;;;5012969;28;20057;-57
2023/04/30 02:51:34;;;;;;;21.67;12.00;;;;;;;;;;5009737;28;20610;-57
2023/04/30 02:54:00;;;;;;;21.42;12.07;;;;;;;;;;5011038;28;20042;-58
2023/04/30 02:56:27;;;;;;;26.30;11.93;;;;;;;;;;5012955;28;20050;-57
2023/04/30 02:58:53;;;;;;;19.88;12.02;;;;;;;;;;5008064;28;20054;-57
2023/04/30 03:01:19;;;;;;;21.23;13.00;;;;;;;;;;5012184;28;20551;-57
2023/04/30 03:03:45;;;;;;;18.70;12.60;;;;;;;;;;5015383;28;20124;-57
2023/04/30 03:06:11;;;;;;;21.20;12.27;;;;;;;;;;5014720;28;20544;-58
2023/04/30 03:08:37;;;;;;;24.45;11.63;;;;;;;;;;5015426;28;20042;-58
2023/04/30 03:11:03;;;;;;;20.58;11.80;;;;;;;;;;5015751;28;20100;-58
2023/04/30 03:13:29;;;;;;;18.52;11.80;;;;;;;;;;5013669;28;20046;-58
2023/04/30 03:15:59;;;;;;;22.60;11.38;;;;;;;;;;5016108;28;20064;-57
2023/04/30 03:18:26;;;;;;;22.83;12.55;;;;;;;;;;5014100;28;20034;-58
2023/04/30 03:20:52;;;;;;;23.38;13.20;;;;;;;;;;5016440;28;20077;-57
2023/04/30 03:23:18;;;;;;;21.10;12.55;;;;;;;;;;5014607;28;20065;-58
2023/04/30 03:25:44;;;;;;;21.45;11.48;;;;;;;;;;5016176;28;20101;-57
2023/04/30 03:28:10;;;;;;;21.73;12.95;;;;;;;;;;5014901;28;20033;-57
2023/04/30 03:30:36;;;;;;;22.65;13.07;;;;;;;;;;5046293;28;20078;-58
2023/04/30 03:33:05;;;;;;;21.27;12.70;;;;;;;;;;5016849;28;20055;-58
2023/04/30 03:35:31;;;;;;;22.77;12.30;;;;;;;;;;5014512;28;20057;-58
2023/04/30 03:37:57;;;;;;;28.88;13.70;;;;;;;;;;5015369;28;20228;-58
2023/04/30 03:40:23;;;;;;;23.17;12.15;;;;;;;;;;5015300;28;20042;-57
2023/04/30 03:42:49;;;;;;;22.42;13.05;;;;;;;;;;5045497;28;20054;-58
2023/04/30 03:45:15;;;;;;;26.27;13.50;;;;;;;;;;5012072;28;20046;-58
2023/04/30 03:47:42;;;;;;;26.98;14.07;;;;;;;;;;5015867;28;20073;-58
2023/04/30 03:50:08;;;;;;;22.27;12.95;;;;;;;;;;5014108;28;20068;-58
2023/04/30 03:52:35;;;;;;;27.58;13.88;;;;;;;;;;5015092;28;20113;-58
2023/04/30 03:55:02;;;;;;;23.67;14.32;;;;;;;;;;5013005;28;20778;-58
2023/04/30 03:57:28;;;;;;;26.67;13.25;;;;;;;;;;5016572;28;20041;-58
2023/04/30 03:59:54;;;;;;;22.10;14.35;;;;;;;;;;5011855;28;20565;-58
2023/04/30 04:02:20;;;;;;;21.75;13.20;;;;;;;;;;5014822;28;20088;-57
2023/04/30 04:04:47;;;;;;;24.15;13.98;;;;;;;;;;5013462;28;20578;-57
2023/04/30 04:07:13;;;;;;;25.70;14.23;;;;;;;;;;5014964;28;21441;-57
2023/04/30 04:09:40;;;;;;;27.88;16.10;;;;;;;;;;5013297;28;20053;-57
2023/04/30 04:12:06;;;;;;;24.52;15.55;;;;;;;;;;5046685;28;20053;-58
2023/04/30 04:14:32;;;;;;;27.05;15.73;;;;;;;;;;5012277;28;20084;-58
2023/04/30 04:17:04;;;;;;;25.23;14.38;;;;;;;;;;5016776;28;20886;-58
2023/04/30 04:19:30;;;;;;;24.17;14.43;;;;;;;;;;5014494;28;20502;-58
2023/04/30 04:21:56;;;;;;;26.45;14.30;;;;;;;;;;5014588;28;20554;-57
2023/04/30 04:24:24;;;;;;;34.47;14.75;;;;;;;;;;5014596;28;20042;-57
2023/04/30 04:26:50;;;;;;;22.40;12.77;;;;;;;;;;5007388;28;20120;-58
2023/04/30 04:29:17;;;;;;;24.70;12.95;;;;;;;;;;5013969;28;20050;-58
2023/04/30 04:31:43;;;;;;;26.35;13.32;;;;;;;;;;5012924;28;20116;-58
2023/04/30 04:34:09;;;;;;;27.13;15.55;;;;;;;;;;5014264;28;20065;-57
2023/04/30 04:36:35;;;;;;;30.55;15.05;;;;;;;;;;5013697;28;20483;-58
2023/04/30 04:39:01;;;;;;;23.75;14.40;;;;;;;;;;5014349;28;20129;-57
2023/04/30 04:41:37;;;;;;;25.23;13.70;;;;;;;;;;5006733;28;20823;-57
2023/04/30 04:44:03;;;;;;;23.30;13.95;;;;;;;;;;5013597;28;20068;-58
2023/04/30 04:46:30;;;;;;;30.10;14.25;;;;;;;;;;5012936;28;20045;-57
2023/04/30 04:48:56;;;;;;;25.38;14.63;;;;;;;;;;5012942;28;20049;-57
2023/04/30 04:51:22;;;;;;;26.20;13.40;;;;;;;;;;5015261;28;20050;-58
2023/04/30 04:53:48;;;;;;;27.58;15.07;;;;;;;;;;5016566;28;20053;-58
2023/04/30 04:56:14;;;;;;;20.30;11.77;;;;;;;;;;5016172;28;20042;-58
2023/04/30 04:58:41;;;;;;;27.38;14.13;;;;;;;;;;5012880;28;20069;-57
2023/04/30 05:01:08;;;;;;;22.65;14.27;;;;;;;;;;5013823;28;20120;-58
2023/04/30 05:03:37;;;;;;;24.73;13.68;;;;;;;;;;5014644;28;20046;-58
2023/04/30 05:06:03;;;;;;;22.83;12.85;;;;;;;;;;5015812;28;20042;-57
2023/04/30 05:08:30;;;;;;;24.88;13.00;;;;;;;;;;5013771;28;20421;-57
2023/04/30 05:10:56;;;;;;;26.23;13.20;;;;;;;;;;5015429;28;20164;-58
2023/04/30 05:13:22;;;;;;;25.27;12.52;;;;;;;;;;5014479;28;20060;-58
2023/04/30 05:15:51;;;;;;;20.75;12.90;;;;;;;;;;5012987;28;20468;-58
2023/04/30 05:18:17;;;;;;;24.23;13.68;;;;;;;;;;5015581;28;20471;-58
2023/04/30 05:20:43;;;;;;;20.33;12.95;;;;;;;;;;5011717;28;20050;-57
2023/04/30 05:23:09;;;;;;;25.42;12.90;;;;;;;;;;5013597;28;20046;-57
2023/04/30 05:25:36;;;;;;;24.77;12.18;;;;;;;;;;5011704;28;20046;-57
2023/04/30 05:28:02;;;;;;;26.63;14.15;;;;;;;;;;5014764;28;20842;-57
2023/04/30 05:30:28;;;;;;;24.42;13.73;;;;;;;;;;5010826;28;20057;-57
2023/04/30 05:32:55;;;;;;;21.25;12.32;;;;;;;;;;5013904;28;20045;-57
2023/04/30 05:35:21;;;;;;;19.60;12.38;;;;;;;;;;5011833;28;20049;-58
2023/04/30 05:37:47;;;;;;;22.35;13.45;;;;;;;;;;5006487;28;20121;-58
2023/04/30 05:40:13;;;;;;;25.73;15.23;;;;;;;;;;5014759;28;20081;-58
2023/04/30 05:42:40;;;;;;;24.42;14.00;;;;;;;;;;5015405;28;20500;-57
2023/04/30 05:45:07;;;;;;;22.73;12.10;;;;;;;;;;5010119;28;20444;-58
2023/04/30 05:47:33;;;;;;;21.63;12.88;;;;;;;;;;5011411;28;20053;-58
2023/04/30 05:49:59;;;;;;;22.30;12.00;;;;;;;;;;5011829;28;20057;-57
2023/04/30 05:52:25;;;;;;;21.95;12.80;;;;;;;;;;5006776;28;20052;-57
2023/04/30 05:54:51;;;;;;;24.90;13.05;;;;;;;;;;5012773;28;20243;-58
2023/04/30 05:57:17;;;;;;;23.00;11.93;;;;;;;;;;5014192;28;20034;-57
2023/04/30 05:59:43;;;;;;;21.92;11.98;;;;;;;;;;5012719;28;20042;-58
2023/04/30 06:02:09;;;;;;;22.73;11.65;;;;;;;;;;5013355;28;20052;-58
2023/04/30 06:04:35;;;;;;;24.10;13.88;;;;;;;;;;5013167;28;20050;-57
2023/04/30 06:07:01;;;;;;;24.65;12.18;;;;;;;;;;5014069;28;20046;-58
2023/04/30 06:09:27;;;;;;;21.15;11.65;;;;;;;;;;5014074;28;20535;-58
2023/04/30 06:11:54;;;;;;;20.75;11.27;;;;;;;;;;5011692;28;20052;-57
2023/04/30 06:14:23;;;;;;;21.88;13.05;;;;;;;;;;5014203;28;20591;-58
2023/04/30 06:16:50;;;;;;;19.38;12.60;;;;;;;;;;5011843;28;20052;-57
2023/04/30 06:19:16;;;;;;;17.48;11.40;;;;;;;;;;5013349;28;20042;-57
2023/04/30 06:21:42;;;;;;;22.10;13.00;;;;;;;;;;5012746;28;20173;-58
2023/04/30 06:24:09;;;;;;;21.38;12.93;;;;;;;;;;5013508;28;20045;-57
2023/04/30 06:26:35;;;;;;;21.52;12.43;;;;;;;;;;5012733;28;20110;-58
2023/04/30 06:29:01;;;;;;;21.02;11.07;;;;;;;;;;5006675;28;20046;-58
2023/04/30 06:31:27;;;;;;;18.92;11.70;;;;;;;;;;5013282;28;20034;-57
2023/04/30 06:33:53;;;;;;;21.77;11.55;;;;;;;;;;5014492;28;20547;-57
2023/04/30 06:36:19;;;;;;;24.25;13.00;;;;;;;;;;5012800;28;20042;-57
2023/04/30 06:38:46;;;;;;;20.23;13.57;;;;;;;;;;5006424;28;20054;-57
2023/04/30 06:41:12;;;;;;;23.17;11.63;;;;;;;;;;5014391;28;20046;-57
2023/04/30 06:43:38;;;;;;;20.70;11.60;;;;;;;;;;5013584;28;20065;-58
2023/04/30 06:46:05;;;;;;;21.08;10.77;;;;;;;;;;5012403;28;20042;-57
2023/04/30 06:48:31;;;;;;;20.83;11.48;;;;;;;;;;5013582;28;20578;-58
2023/04/30 06:50:58;;;;;;;21.15;11.68;;;;;;;;;;5013768;28;20046;-58
2023/04/30 06:53:24;;;;;;;19.70;13.07;;;;;;;;;;5011997;28;20041;-58
2023/04/30 06:55:51;;;;;;;20.10;11.30;;;;;;;;;;5014098;28;20097;-58
2023/04/30 06:58:20;;;;;;;19.63;11.38;;;;;;;;;;5013906;28;20238;-58
2023/04/30 07:00:46;;;;;;;20.92;11.48;;;;;;;;;;5011545;28;20041;-57
2023/04/30 07:03:12;;;;;;;25.58;11.18;;;;;;;;;;5013695;28;20144;-58
2023/04/30 07:05:38;;;;;;;26.27;14.32;;;;;;;;;;5043112;28;20042;-58
2023/04/30 07:08:06;;;;;;;19.55;11.15;;;;;;;;;;5013533;28;20528;-58
2023/04/30 07:10:32;;;;;;;22.50;12.32;;;;;;;;;;5013156;28;20595;-57
2023/04/30 07:12:58;;;;;;;24.90;13.55;;;;;;;;;;5044628;28;20240;-58
2023/04/30 07:15:24;;;;;;;21.00;10.98;;;;;;;;;;5012051;28;20053;-58
2023/04/30 07:17:51;;;;;;;23.42;12.00;;;;;;;;;;5012540;28;20042;-57
2023/04/30 07:20:17;;;;;;;21.23;12.77;;;;;;;;;;5011456;28;20285;-58
2023/04/30 07:22:44;;;;;;;23.42;14.90;;;;;;;;;;5013238;28;20072;-58
2023/04/30 07:25:11;;;;;;;19.58;11.40;;;;;;;;;;5014019;28;20120;-57
2023/04/30 07:27:37;;;;;;;23.52;13.27;;;;;;;;;;5012570;28;20133;-57
2023/04/30 07:30:04;;;;;;;21.92;13.07;;;;;;;;;;5010430;28;20052;-57
2023/04/30 07:32:30;;;;;;;19.60;12.88;;;;;;;;;;5012548;28;20747;-57
2023/04/30 07:34:57;;;;;;;28.00;14.20;;;;;;;;;;5014077;28;20050;-57
2023/04/30 07:37:23;;;;;;;19.15;11.95;;;;;;;;;;5010545;28;20219;-57
2023/04/30 07:39:49;;;;;;;23.25;13.45;;;;;;;;;;5011823;28;20447;-58
2023/04/30 07:42:15;;;;;;;21.77;12.63;;;;;;;;;;5011492;28;20111;-58
2023/04/30 07:44:41;;;;;;;19.85;11.57;;;;;;;;;;5011038;28;20107;-58
2023/04/30 07:47:07;;;;;;;18.08;11.65;;;;;;;;;;5008668;28;20057;-57
2023/04/30 07:49:33;;;;;;;16.38;10.80;;;;;;;;;;5040618;28;20326;-58
2023/04/30 07:52:00;;;;;;;19.92;11.52;;;;;;;;;;5013121;28;20042;-58
2023/04/30 07:54:26;;;;;;;20.35;12.07;;;;;;;;;;5013336;28;20037;-58
2023/04/30 07:56:52;;;;;;;20.63;11.63;;;;;;;;;;5013944;28;20144;-57
2023/04/30 07:59:20;;;;;;;20.85;12.65;;;;;;;;;;5007257;28;20097;-57
2023/04/30 08:01:46;;;;;;;17.90;10.70;;;;;;;;;;5006151;28;20655;-57
2023/04/30 08:04:12;;;;;;;17.58;11.25;;;;;;;;;;5013979;28;20042;-58
2023/04/30 08:06:38;;;;;;;21.17;11.73;;;;;;;;;;5013603;28;20038;-57
2023/04/30 08:09:04;;;;;;;19.02;10.85;;;;;;;;;;5013636;28;20053;-57
2023/04/30 08:11:30;;;;;;;15.77;11.05;;;;;;;;;;5011494;28;20038;-58
2023/04/30 08:13:56;;;;;;;18.58;9.73;;;;;;;;;;5013805;28;20096;-57
2023/04/30 08:16:22;;;;;;;16.23;9.57;;;;;;;;;;5029309;28;20222;-58
2023/04/30 08:18:49;;;;;;;17.02;11.23;;;;;;;;;;5014258;28;20353;-57
2023/04/30 08:21:16;;;;;;;18.13;11.32;;;;;;;;;;5010796;28;20038;-58
2023/04/30 08:23:43;;;;;;;15.43;9.38;;;;;;;;;;5013477;28;20431;-57
2023/04/30 08:26:09;;;;;;;18.30;10.73;;;;;;;;;;5012506;28;20050;-57
2023/04/30 08:28:35;;;;;;;14.25;8.60;;;;;;;;;;5012495;28;20548;-58
2023/04/30 08:31:01;;;;;;;14.30;8.00;;;;;;;;;;5014689;28;20527;-58
2023/04/30 08:33:27;;;;;;;11.68;7.70;;;;;;;;;;5013698;28;20046;-58
2023/04/30 08:35:54;;;;;;;12.60;7.25;;;;;;;;;;5044682;28;20615;-58
2023/04/30 08:38:20;;;;;;;11.35;6.78;;;;;;;;;;5011862;28;20047;-58
2023/04/30 08:40:52;;;;;;;12.30;7.80;;;;;;;;;;5020152;28;20096;-58
2023/04/30 08:43:19;;;;;;;11.40;7.53;;;;;;;;;;5013019;28;20503;-58
2023/04/30 08:45:45;;;;;;;11.48;7.47;;;;;;;;;;5010822;28;20049;-57
2023/04/30 08:48:13;;;;;;;9.98;6.63;;;;;;;;;;5012145;28;20030;-58
2023/04/30 08:50:40;;;;;;;9.57;5.63;;;;;;;;;;5028277;28;20042;-58
2023/04/30 08:53:07;;;;;;;13.57;7.60;;;;;;;;;;5010847;28;20034;-58
2023/04/30 08:55:34;;;;;;;9.48;6.45;;;;;;;;;;5008621;28;20050;-57
2023/04/30 08:58:00;;;;;;;8.88;6.38;;;;;;;;;;5011863;28;20488;-57
2023/04/30 09:00:26;;;;;;;11.10;6.88;;;;;;;;;;5013393;28;20046;-57
2023/04/30 09:02:52;;;;;;;10.02;5.85;;;;;;;;;;5023200;28;20034;-58
2023/04/30 09:05:19;;;;;;;9.55;5.97;;;;;;;;;;5009208;28;20153;-57
2023/04/30 09:07:46;;;;;;;13.30;6.95;;;;;;;;;;5012510;28;20038;-58
2023/04/30 09:10:19;;;;;;;10.52;6.43;;;;;;;;;;5014173;28;20045;-57
2023/04/30 09:12:58;;;;;;;12.82;7.65;;;;;;;;;;5012383;28;21990;-58
2023/04/30 09:15:25;;;;;;;11.43;5.97;;;;;;;;;;5012232;28;20042;-58
2023/04/30 09:18:05;;;;;;;10.57;7.28;;;;;;;;;;5010986;28;20075;-58
2023/04/30 09:20:31;;;;;;;10.27;6.53;;;;;;;;;;5043528;28;20050;-58
2023/04/30 09:23:07;;;;;;;9.15;5.68;;;;;;;;;;5028957;28;20128;-58
2023/04/30 09:25:42;;;;;;;8.98;6.10;;;;;;;;;;5011493;28;20052;-58
2023/04/30 09:28:09;;;;;;;12.25;5.13;;;;;;;;;;5013009;28;20073;-58
2023/04/30 09:30:35;;;;;;;6.25;4.30;;;;;;;;;;5010421;28;20098;-58
2023/04/30 09:33:02;;;;;;;6.68;4.93;;;;;;;;;;5012573;28;20046;-58
2023/04/30 09:35:35;;;;;;;8.25;4.57;;;;;;;;;;5014066;28;20058;-58
2023/04/30 09:38:02;;;;;;;7.85;4.85;;;;;;;;;;5013635;28;20073;-58
2023/04/30 09:40:35;;;;;;;10.95;5.00;;;;;;;;;;5013510;28;20084;-58
2023/04/30 09:43:02;;;;;;;8.15;5.00;;;;;;;;;;5013299;28;20062;-58
2023/04/30 09:45:38;;;;;;;6.20;4.45;;;;;;;;;;5012262;28;20056;-58
2023/04/30 09:48:04;;;;;;;7.25;5.00;;;;;;;;;;5010777;28;20042;-57
2023/04/30 09:50:37;;;;;;;8.30;4.70;;;;;;;;;;5013080;28;20431;-57
2023/04/30 09:53:07;;;;;;;8.00;4.93;;;;;;;;;;5013928;28;20040;-57
2023/04/30 09:55:34;;;;;;;7.97;5.05;;;;;;;;;;5014080;28;20631;-58
2023/04/30 09:58:02;;;;;;;10.70;5.15;;;;;;;;;;5012910;28;20052;-58
2023/04/30 10:00:29;;;;;;;16.83;11.98;;;;;;;;;;5014136;28;20160;-58
2023/04/30 10:02:55;;;;;;;14.45;9.90;;;;;;;;;;5013454;28;20256;-58
2023/04/30 10:05:21;;;;;;;8.23;5.63;;;;;;;;;;5015948;28;20846;-58
2023/04/30 10:07:47;;;;;;;9.70;5.38;;;;;;;;;;5010735;28;20104;-58
2023/04/30 10:10:14;;;;;;;8.63;5.85;;;;;;;;;;5012538;28;20092;-58
2023/04/30 10:12:47;;;;;;;8.65;6.18;;;;;;;;;;5012862;28;20050;-58
2023/04/30 10:15:18;;;;;;;8.88;5.85;;;;;;;;;;5015024;28;20160;-58
2023/04/30 10:17:47;;;;;;;6.30;5.05;;;;;;;;;;5011585;28;20689;-58
2023/04/30 10:20:13;;;;;;;9.30;5.82;;;;;;;;;;5013656;28;20042;-58
2023/04/30 10:22:40;;;;;;;8.20;5.30;;;;;;;;;;5010874;28;20591;-57
2023/04/30 10:25:10;;;;;;;7.63;4.85;;;;;;;;;;5012967;28;20104;-57
2023/04/30 10:27:36;;;;;;;9.48;6.13;;;;;;;;;;5007045;28;20066;-57
2023/04/30 10:30:02;;;;;;;7.13;4.55;;;;;;;;;;5011196;28;20847;-57
2023/04/30 10:32:36;;;;;;;8.63;5.20;;;;;;;;;;5015085;28;20102;-61
2023/04/30 10:35:08;;;;;;;8.55;6.03;;;;;;;;;;5013252;28;20081;-62
2023/04/30 10:37:34;;;;;;;;;;;;;;;;;;5014612;28;20041;-61
2023/04/30 10:40:03;;;;;;;8.27;5.35;;;;;;;;;;5013149;28;19921;-62
2023/04/30 10:42:30;;;;;;;9.43;5.32;;;;;;;;;;5014385;28;20217;-61
2023/04/30 10:44:56;;;;;;;7.93;4.88;;;;;;;;;;5013101;28;20058;-61
2023/04/30 10:47:27;;;;;;;7.80;5.22;;;;;;;;;;5012514;28;20133;-61
2023/04/30 10:50:01;;;;;;;6.82;4.32;;;;;;;;;;5011716;28;20033;-61
2023/04/30 10:52:29;;;;;;;8.02;5.05;;;;;;;;;;5014661;28;20049;-61
2023/04/30 10:54:55;;;;;;;9.98;6.07;;;;;;;;;;5010358;28;20060;-61
2023/04/30 10:57:21;;;;;;;7.90;4.93;;;;;;;;;;5011461;28;20108;-61
2023/04/30 10:59:50;;;;;;;7.38;4.85;;;;;;;;;;5011888;28;20057;-61
2023/04/30 11:02:16;;;;;;;10.23;4.93;;;;;;;;;;5014081;28;20042;-61
2023/04/30 11:05:01;;;;;;;7.43;3.90;;;;;;;;;;5013201;28;20564;-61
2023/04/30 11:07:27;;;;;;;7.47;5.05;;;;;;;;;;5012979;28;20032;-61
2023/04/30 11:09:56;;;;;;;6.50;4.22;;;;;;;;;;5012294;28;20161;-61
2023/04/30 11:12:31;;;;;;;5.70;4.03;;;;;;;;;;5013353;28;20595;-61
2023/04/30 11:15:01;;;;;;;7.28;5.43;;;;;;;;;;5011669;28;20583;-61
2023/04/30 11:17:28;;;;;;;7.30;4.20;;;;;;;;;;5011163;28;20038;-61
2023/04/30 11:19:59;;;;;;;7.65;4.75;;;;;;;;;;5012088;28;20046;-61
2023/04/30 11:22:26;;;;;;;5.83;4.10;;;;;;;;;;5012472;28;20168;-61
2023/04/30 11:24:58;;;;;;;6.20;4.43;;;;;;;;;;5047602;28;20048;-61
2023/04/30 11:27:25;;;;;;;5.68;3.17;;;;;;;;;;5015924;28;20041;-61
2023/04/30 11:29:51;;;;;;;7.70;4.47;;;;;;;;;;5015782;28;20145;-61
2023/04/30 11:32:18;;;;;;;5.88;3.42;;;;;;;;;;5015889;28;20429;-61
2023/04/30 11:34:44;;;;;;;6.18;3.60;;;;;;;;;;5015072;28;20045;-61
2023/04/30 11:37:13;;;;;;;5.82;4.18;;;;;;;;;;5014695;28;20038;-62
2023/04/30 11:39:39;;;;;;;5.45;3.78;;;;;;;;;;5016193;28;20046;-61
2023/04/30 11:42:07;;;;;;;5.30;3.88;;;;;;;;;;5016887;28;20053;-62
2023/04/30 11:44:33;;;;;;;6.78;3.75;;;;;;;;;;5015952;28;20066;-62
2023/04/30 11:46:59;;;;;;;5.47;3.90;;;;;;;;;;5016022;28;20045;-62
2023/04/30 11:49:26;;;;;;;5.47;3.45;;;;;;;;;;5016350;28;20574;-62
2023/04/30 11:51:52;;;;;;;5.35;3.60;;;;;;;;;;5016134;28;20046;-62
2023/04/30 11:54:19;;;;;;;5.97;4.45;;;;;;;;;;5014685;28;20046;-62
2023/04/30 11:56:48;;;;;;;5.50;3.53;;;;;;;;;;5014976;28;20041;-58
2023/04/30 11:59:14;;;;;;;5.63;3.67;;;;;;;;;;5017475;28;20044;-58
2023/04/30 12:01:41;;;;;;;5.78;3.35;;;;;;;;;;5015409;28;20100;-58
2023/04/30 12:04:07;;;;;;;7.00;3.53;;;;;;;;;;5016309;28;20099;-58
2023/04/30 12:06:34;;;;;;;5.20;3.88;;;;;;;;;;5014733;28;20587;-58
2023/04/30 12:09:03;;;;;;;4.95;3.78;;;;;;;;;;5031473;28;20464;-58
2023/04/30 12:11:32;;;;;;;5.18;3.92;;;;;;;;;;5016606;28;20045;-58
2023/04/30 12:14:03;;;;;;;4.15;2.83;;;;;;;;;;5015066;28;20497;-58
2023/04/30 12:16:44;;;;;;;5.83;3.07;;;;;;;;;;5007595;28;20046;-58
2023/04/30 12:19:10;;;;;;;5.88;3.55;;;;;;;;;;5017095;28;20100;-58
2023/04/30 12:21:37;;;;;;;6.47;4.47;;;;;;;;;;5015479;28;20479;-58
2023/04/30 12:24:03;;;;;;;5.65;3.92;;;;;;;;;;5016196;28;20496;-57
2023/04/30 12:26:40;;;;;;;5.78;4.13;;;;;;;;;;5028883;28;20048;-57
2023/04/30 12:29:10;;;;;;;6.07;3.85;;;;;;;;;;5008730;28;20528;-57
2023/04/30 12:31:36;;;;;;;6.45;4.05;;;;;;;;;;5015757;28;20053;-59
2023/04/30 12:34:06;;;;;;;4.88;3.20;;;;;;;;;;5014460;28;20042;-58
2023/04/30 12:36:35;;;;;;;5.32;3.55;;;;;;;;;;5014103;28;20053;-58
2023/04/30 12:39:16;;;;;;;6.20;3.83;;;;;;;;;;5015395;28;20046;-58
2023/04/30 12:41:44;;;;;;;5.55;3.70;;;;;;;;;;5014086;28;20045;-62
2023/04/30 12:44:19;;;;;;;5.80;3.30;;;;;;;;;;5014240;28;20054;-61
2023/04/30 12:46:46;;;;;;;5.28;3.40;;;;;;;;;;5015018;28;20897;-62
2023/04/30 12:49:21;;;;;;;4.80;3.28;;;;;;;;;;5015012;28;20049;-62
2023/04/30 12:51:48;;;;;;;7.20;4.07;;;;;;;;;;5030811;28;20046;-62
2023/04/30 12:54:14;;;;;;;5.43;3.60;;;;;;;;;;5014645;28;20145;-62
2023/04/30 12:56:56;;;;;;;5.88;4.30;;;;;;;;;;5013794;28;20046;-61
2023/04/30 12:59:22;;;;;;;9.35;4.35;;;;;;;;;;5014912;28;20104;-61
2023/04/30 13:01:48;;;;;;;5.22;3.60;;;;;;;;;;5014562;28;20073;-62
2023/04/30 13:04:14;;;;;;;6.35;4.03;;;;;;;;;;5015280;28;20073;-61
2023/04/30 13:06:40;;;;;;;8.85;5.72;;;;;;;;;;5013982;28;20594;-61
2023/04/30 13:09:06;;;;;;;6.07;4.65;;;;;;;;;;5014930;28;20105;-61
2023/04/30 13:11:32;;;;;;;7.43;4.90;;;;;;;;;;5015492;28;20555;-61
2023/04/30 13:13:58;;;;;;;6.70;4.13;;;;;;;;;;5012107;28;20536;-61
2023/04/30 13:16:24;;;;;;;7.03;5.00;;;;;;;;;;5013612;28;20060;-61
2023/04/30 13:18:50;;;;;;;6.97;4.10;;;;;;;;;;5020378;28;20052;-61
2023/04/30 13:21:17;;;;;;;7.28;4.55;;;;;;;;;;5013729;28;20508;-61
2023/04/30 13:23:43;;;;;;;6.95;4.60;;;;;;;;;;5011690;28;20041;-61
2023/04/30 13:26:09;;;;;;;6.28;3.92;;;;;;;;;;5008951;28;20570;-61
2023/04/30 13:28:35;;;;;;;6.47;4.45;;;;;;;;;;5014928;28;20617;-61
2023/04/30 13:31:01;;;;;;;6.20;4.82;;;;;;;;;;5013462;28;20049;-60
2023/04/30 13:33:27;;;;;;;6.57;4.13;;;;;;;;;;5012038;28;20105;-60
2023/04/30 13:35:53;;;;;;;7.20;4.18;;;;;;;;;;5045850;28;20046;-61
2023/04/30 13:38:19;;;;;;;7.70;4.65;;;;;;;;;;5015537;28;20053;-61
2023/04/30 13:40:45;;;;;;;7.85;3.92;;;;;;;;;;5015272;28;20085;-61
2023/04/30 13:43:12;;;;;;;6.82;4.00;;;;;;;;;;5013825;28;20057;-61
2023/04/30 13:45:38;;;;;;;6.18;4.07;;;;;;;;;;5014352;28;20037;-61
2023/04/30 13:48:04;;;;;;;7.28;4.72;;;;;;;;;;5012494;28;20145;-61
2023/04/30 13:50:30;;;;;;;8.50;4.72;;;;;;;;;;5014735;28;20052;-61
2023/04/30 13:52:58;;;;;;;6.75;4.32;;;;;;;;;;5014316;28;20042;-61
2023/04/30 13:55:24;;;;;;;6.30;4.20;;;;;;;;;;5015708;28;20046;-61
2023/04/30 13:57:50;;;;;;;6.90;4.40;;;;;;;;;;5013853;28;20042;-61
2023/04/30 14:00:16;;;;;;;6.25;4.15;;;;;;;;;;5014485;28;20096;-61
2023/04/30 14:02:43;;;;;;;9.00;4.55;;;;;;;;;;5012850;28;20073;-62
2023/04/30 14:05:09;;;;;;;7.60;4.00;;;;;;;;;;5011380;28;20041;-61
2023/04/30 14:07:36;;;;;;;5.22;3.42;;;;;;;;;;5014551;28;20088;-61
2023/04/30 14:10:02;;;;;;;6.63;4.72;;;;;;;;;;5027796;28;20041;-61
2023/04/30 14:12:29;;;;;;;7.55;4.95;;;;;;;;;;5012785;28;20046;-61
2023/04/30 14:14:56;;;;;;;7.47;4.32;;;;;;;;;;5012383;28;20076;-61
2023/04/30 14:17:22;;;;;;;6.78;4.25;;;;;;;;;;5013655;28;20049;-61
2023/04/30 14:19:48;;;;;;;6.50;4.28;;;;;;;;;;5014164;28;20133;-61
2023/04/30 14:22:15;;;;;;;6.50;4.10;;;;;;;;;;5014049;28;20145;-61
2023/04/30 14:24:41;;;;;;;6.65;3.60;;;;;;;;;;5013169;28;20038;-61
2023/04/30 14:27:07;;;;;;;5.72;3.92;;;;;;;;;;5012906;28;20038;-61